Golden Triangle Regional Airport
KGTR : now visible

Airfield :











YOU CAN JOIN US ON...

 
LOGIN :

Register | Disclaimer

   EN    FR    IT 

 









Legend :    VFR   Marginal VFR   IFR   Intensive IFR   Very Intensive IFR
Visi :
Ceiling :
>= 8 km
>= 3000ft
5 to 8 km
1000 to 3000 ft
1500m to 5 km
500 to 1000 ft
800 to 1500m
200 to 500 ft
< 800m
< 200 ft
Symbols :   Thunderstorms  Fog  Heavy snow  Heavy precipitations  Wind > 20 kt






- Airport Elevation : 264 ft


KGTR - Golden Triangle Regional

CURRENT METAR :
  • 250256Z AUTO 11008KT 10SM FEW080 21/20 A2997 RMK AO2 SLP154 T02110200 51009

EXPIRED METARs :
  • 250156Z AUTO 13008KT 10SM CLR 22/21 A2996 RMK AO2 SLP151 T02170206
  • 250056Z AUTO 15003KT 10SM FEW110 21/21 A2996 RMK AO2 SLP150 T02110206

TAF KGTR
Valid from the 25 at 00:00 until the 26 at 00:00 UTC


242340Z 2500/2524 15007KT P6SM VCSH FEW018 SCT070 OVC100
FM250200 15010KT P6SM -RA BKN050 OVC120
FM250800 14011KT 6SM BR OVC007
FM251500 14012KT 4SM -RA BR OVC007
FM251700 15014G20KT 4SM -TSRA BR OVC015CB
FM252200 17016G23KT 5SM -RA BR OVC025
KZME FIR / North America



MET'MAP, your aeronautical weather chart ! - Copyright ORBIFLY December 2007 - Disclaimer

ORBIFLY MET'MAP TEAM :

Programming & Development : Alexandra Zaïnal
Original concept : Baudouin d'Aumeries
Technical & hardware support : Manuel Goepfert
Assistance : Marc-Olivier Méhu

Contact : metmap@orbifly.com




SOURCES & CREDITS :

   NOAA       Earth
Advisory